createdAt,value
2022-11-28T00:00:29.552Z,100389.34
2022-11-28T00:02:59.185Z,100382.63
2022-11-28T00:05:28.991Z,100384.41
2022-11-28T00:08:01.137Z,100394.22
2022-11-28T00:10:30.676Z,100394.38
2022-11-28T00:13:00.136Z,100400.50
2022-11-28T00:15:29.828Z,100392.47
2022-11-28T00:17:59.388Z,100381.19
2022-11-28T00:20:28.868Z,100379.06
2022-11-28T00:23:00.965Z,100368.66
2022-11-28T00:25:30.421Z,100369.56
2022-11-28T00:27:59.937Z,100368.66
2022-11-28T00:30:29.426Z,100369.28
2022-11-28T00:32:58.905Z,100371.59
2022-11-28T00:35:28.394Z,100363.78
2022-11-28T00:37:57.860Z,100369.97
2022-11-28T00:40:29.923Z,100365.78
2022-11-28T00:42:59.390Z,100366.06
2022-11-28T00:45:28.934Z,100361.44
2022-11-28T00:47:58.435Z,100359.63
2022-11-28T00:50:27.986Z,100355.19
2022-11-28T00:52:57.453Z,100355.66
2022-11-28T00:55:29.506Z,100359.22
2022-11-28T00:57:59.003Z,100355.66
2022-11-28T01:00:28.484Z,100359.72
2022-11-28T01:02:58.027Z,100357.97
2022-11-28T01:05:27.517Z,100357.13
2022-11-28T01:07:57.013Z,100364.94
2022-11-28T01:10:29.096Z,100356.88
2022-11-28T01:12:58.544Z,100351.72
2022-11-28T01:15:28.112Z,100354.16
2022-11-28T01:17:57.564Z,100346.19
2022-11-28T01:20:27.042Z,100342.75
2022-11-28T01:22:56.498Z,100339.09
2022-11-28T01:25:25.973Z,100338.44
2022-11-28T01:27:58.076Z,100332.88
2022-11-28T01:30:27.549Z,100327.19
2022-11-28T01:32:57.225Z,100321.03
2022-11-28T01:35:26.713Z,100314.19
2022-11-28T01:37:56.152Z,100312.41
2022-11-28T01:40:25.898Z,100314.72
2022-11-28T01:42:57.997Z,100326.41
2022-11-28T01:45:27.907Z,100323.88
2022-11-28T01:47:58.369Z,100311.47
2022-11-28T01:50:27.807Z,100312.94
2022-11-28T01:52:58.941Z,100294.00
2022-11-28T01:55:29.996Z,100305.44
2022-11-28T01:58:02.065Z,100313.25
2022-11-28T02:00:31.638Z,100306.69
2022-11-28T02:03:03.518Z,100294.78
2022-11-28T02:05:33.045Z,100286.69
2022-11-28T02:08:02.748Z,100296.91
2022-11-28T02:10:35.473Z,100297.28
2022-11-28T02:13:20.678Z,100292.19
2022-11-28T02:15:57.786Z,100281.25
2022-11-28T02:18:35.687Z,100278.63
2022-11-28T02:21:37.378Z,100287.78
2022-11-28T02:24:39.589Z,100286.78
2022-11-28T02:27:23.960Z,100277.16
2022-11-28T02:30:15.125Z,100278.63
2022-11-28T02:33:03.445Z,100277.16
2022-11-28T02:35:36.817Z,100281.75
2022-11-28T02:38:11.023Z,100271.91
2022-11-28T02:40:41.834Z,100271.28
2022-11-28T02:43:15.456Z,100269.56
2022-11-28T02:45:49.557Z,100272.91
2022-11-28T02:48:25.439Z,100271.34
2022-11-28T02:50:57.172Z,100267.88
2022-11-28T02:53:27.417Z,100258.22
2022-11-28T02:55:57.761Z,100254.69
2022-11-28T02:58:27.187Z,100253.06
2022-11-28T03:00:56.969Z,100252.53
2022-11-28T03:03:36.551Z,100257.25
2022-11-28T03:06:09.706Z,100246.91
2022-11-28T03:08:48.768Z,100253.28
2022-11-28T03:11:20.121Z,100248.59
2022-11-28T03:13:54.297Z,100233.38
2022-11-28T03:16:28.028Z,100243.13
2022-11-28T03:19:04.793Z,100242.16
2022-11-28T03:21:39.390Z,100234.69
2022-11-28T03:24:13.074Z,100233.00
2022-11-28T03:26:47.597Z,100224.28
2022-11-28T03:29:19.145Z,100221.72
2022-11-28T03:31:50.847Z,100217.50
2022-11-28T03:34:23.825Z,100219.97
2022-11-28T03:36:54.728Z,100217.31
2022-11-28T03:39:26.512Z,100215.66
2022-11-28T03:41:57.759Z,100213.94
2022-11-28T03:44:29.064Z,100207.16
2022-11-28T03:46:59.337Z,100209.44
2022-11-28T03:49:32.982Z,100212.47
2022-11-28T03:52:05.664Z,100209.09
2022-11-28T03:54:36.982Z,100207.28
2022-11-28T03:57:10.445Z,100199.56
2022-11-28T03:59:40.884Z,100192.63
2022-11-28T04:02:18.173Z,100197.66
2022-11-28T04:04:54.167Z,100205.53
2022-11-28T04:07:26.592Z,100209.91
2022-11-28T04:10:00.666Z,100210.69
2022-11-28T04:12:42.718Z,100215.31
2022-11-28T04:15:14.803Z,100213.59
2022-11-28T04:17:48.897Z,100212.59
2022-11-28T04:20:23.588Z,100205.03
2022-11-28T04:22:55.512Z,100210.97
2022-11-28T04:25:25.385Z,100215.63
2022-11-28T04:27:57.385Z,100194.09
2022-11-28T04:30:26.890Z,100202.38
2022-11-28T04:32:59.152Z,100197.22
2022-11-28T04:35:32.827Z,100204.13
2022-11-28T04:38:02.505Z,100211.41
2022-11-28T04:40:32.970Z,100205.56
2022-11-28T04:43:04.638Z,100202.88
2022-11-28T04:45:36.115Z,100208.03
2022-11-28T04:48:05.729Z,100197.97
2022-11-28T04:50:40.507Z,100196.72
2022-11-28T04:53:12.485Z,100196.41
2022-11-28T04:55:44.695Z,100199.59
2022-11-28T04:58:15.996Z,100201.41
2022-11-28T05:00:45.672Z,100194.56
2022-11-28T05:03:15.212Z,100197.81
2022-11-28T05:05:48.773Z,100187.00
2022-11-28T05:08:18.400Z,100176.34
2022-11-28T05:10:47.893Z,100183.47
2022-11-28T05:13:17.930Z,100185.53
2022-11-28T05:15:47.441Z,100183.69
2022-11-28T05:18:16.905Z,100183.69
2022-11-28T05:20:48.943Z,100177.72
2022-11-28T05:23:18.420Z,100174.94
2022-11-28T05:25:47.857Z,100178.72
2022-11-28T05:28:17.326Z,100175.97
2022-11-28T05:30:46.780Z,100187.22
2022-11-28T05:33:16.361Z,100187.97
2022-11-28T05:35:45.827Z,100178.72
2022-11-28T05:38:17.876Z,100180.19
2022-11-28T05:40:47.334Z,100186.84
2022-11-28T05:43:16.865Z,100189.25
2022-11-28T05:45:46.504Z,100174.19
2022-11-28T05:48:16.016Z,100181.94
2022-11-28T05:50:45.505Z,100182.59
2022-11-28T05:53:17.592Z,100182.47
2022-11-28T05:55:47.091Z,100181.78
2022-11-28T05:58:16.606Z,100184.69
2022-11-28T06:00:46.060Z,100182.03
2022-11-28T06:03:15.558Z,100177.72
2022-11-28T06:05:45.596Z,100186.88
2022-11-28T06:08:17.750Z,100187.03
2022-11-28T06:10:47.180Z,100177.06
2022-11-28T06:13:16.658Z,100186.81
2022-11-28T06:15:46.502Z,100183.25
2022-11-28T06:18:15.974Z,100180.41
2022-11-28T06:20:45.428Z,100176.31
2022-11-28T06:23:17.447Z,100174.09
2022-11-28T06:25:46.933Z,100178.78
2022-11-28T06:28:16.419Z,100171.91
2022-11-28T06:30:46.248Z,100166.69
2022-11-28T06:33:15.702Z,100172.34
2022-11-28T06:35:45.197Z,100175.53
2022-11-28T06:38:17.242Z,100175.34
2022-11-28T06:40:46.707Z,100175.53
2022-11-28T06:43:16.482Z,100171.84
2022-11-28T06:45:45.993Z,100177.56
2022-11-28T06:48:15.472Z,100173.09
2022-11-28T06:50:44.989Z,100182.63
2022-11-28T06:53:17.228Z,100175.25
2022-11-28T06:55:46.979Z,100176.63
2022-11-28T06:58:16.490Z,100176.69
2022-11-28T07:00:45.951Z,100170.78
2022-11-28T07:03:15.432Z,100181.22
2022-11-28T07:05:44.901Z,100180.66
2022-11-28T07:08:17.253Z,100190.50
2022-11-28T07:10:46.772Z,100196.88
2022-11-28T07:13:16.225Z,100199.66
2022-11-28T07:15:51.400Z,100203.16
2022-11-28T07:18:20.886Z,100211.34
2022-11-28T07:20:50.299Z,100210.16
2022-11-28T07:23:22.397Z,100213.84
2022-11-28T07:25:51.854Z,100214.25
2022-11-28T07:28:23.380Z,100209.25
2022-11-28T07:30:53.090Z,100213.69
2022-11-28T07:33:22.574Z,100204.63
2022-11-28T07:35:52.006Z,100200.50
2022-11-28T07:38:24.063Z,100196.91
2022-11-28T07:40:53.504Z,100201.50
2022-11-28T07:43:22.955Z,100175.91
2022-11-28T07:46:00.932Z,100194.38
2022-11-28T07:48:31.082Z,100192.91
2022-11-28T07:51:00.532Z,100187.41
2022-11-28T07:53:32.561Z,100184.31
2022-11-28T07:56:04.106Z,100183.84
2022-11-28T07:58:33.665Z,100179.03
2022-11-28T08:01:03.089Z,100177.53
2022-11-28T08:03:32.566Z,100172.47
2022-11-28T08:06:03.372Z,100179.66
2022-11-28T08:08:35.459Z,100185.69
2022-11-28T08:11:05.673Z,100181.06
2022-11-28T08:13:35.161Z,100190.50
2022-11-28T08:16:06.938Z,100195.81
2022-11-28T08:18:36.604Z,100195.00
2022-11-28T08:21:07.318Z,100197.91
2022-11-28T08:23:39.502Z,100190.28
2022-11-28T08:26:10.507Z,100201.13
2022-11-28T08:28:39.968Z,100197.91
2022-11-28T08:31:14.718Z,100202.28
2022-11-28T08:33:44.837Z,100196.91
2022-11-28T08:36:15.021Z,100198.66
2022-11-28T08:39:02.977Z,100195.22
2022-11-28T08:41:36.510Z,100192.28
2022-11-28T08:44:06.162Z,100185.44
2022-11-28T08:46:36.745Z,100181.75
2022-11-28T08:49:06.220Z,100180.16
2022-11-28T08:51:35.692Z,100178.19
2022-11-28T08:54:07.937Z,100173.25
2022-11-28T08:56:37.542Z,100179.09
2022-11-28T08:59:07.220Z,100167.88
2022-11-28T09:01:36.736Z,100183.31
2022-11-28T09:04:07.175Z,100191.81
2022-11-28T09:06:36.793Z,100188.94
2022-11-28T09:09:09.225Z,100184.09
2022-11-28T09:11:39.682Z,100181.94
2022-11-28T09:14:09.813Z,100182.16
2022-11-28T09:16:40.562Z,100182.00
2022-11-28T09:19:10.801Z,100182.94
2022-11-28T09:21:40.706Z,100190.97
2022-11-28T09:24:14.091Z,100195.75
2022-11-28T09:26:43.647Z,100196.75
2022-11-28T09:29:13.470Z,100192.06
2022-11-28T09:31:47.175Z,100191.84
2022-11-28T09:34:17.098Z,100195.09
2022-11-28T09:36:46.559Z,100197.31
2022-11-28T09:39:18.955Z,100200.25
2022-11-28T09:41:59.152Z,100193.22
2022-11-28T09:44:29.738Z,100190.78
2022-11-28T09:47:01.945Z,100202.38
2022-11-28T09:49:40.595Z,100198.50
2022-11-28T09:52:16.525Z,100193.50
2022-11-28T09:54:54.991Z,100192.56
2022-11-28T09:57:28.802Z,100187.41
2022-11-28T09:59:58.257Z,100185.38
2022-11-28T10:02:29.528Z,100187.59
2022-11-28T10:05:05.273Z,100182.84
2022-11-28T10:07:39.265Z,100177.38
2022-11-28T10:10:18.130Z,100183.84
2022-11-28T10:12:51.177Z,100180.19
2022-11-28T10:15:38.518Z,100181.88
2022-11-28T10:18:14.235Z,100186.56
2022-11-28T10:20:45.011Z,100186.47
2022-11-28T10:23:17.501Z,100176.69
2022-11-28T10:25:51.253Z,100177.59
2022-11-28T10:28:22.404Z,100177.00
2022-11-28T10:30:53.840Z,100171.53
2022-11-28T10:33:25.994Z,100166.78
2022-11-28T10:35:56.774Z,100171.78
2022-11-28T10:38:27.827Z,100168.97
2022-11-28T10:41:02.393Z,100169.25
2022-11-28T10:43:39.744Z,100170.38
2022-11-28T10:46:21.931Z,100180.41
2022-11-28T10:48:53.784Z,100177.38
2022-11-28T10:51:29.420Z,100171.56
2022-11-28T10:54:05.926Z,100173.84
2022-11-28T10:56:41.034Z,100174.25
2022-11-28T10:59:15.614Z,100169.47
2022-11-28T11:01:50.008Z,100175.53
2022-11-28T11:04:21.347Z,100170.97
2022-11-28T11:07:07.861Z,100171.16
2022-11-28T11:09:38.485Z,100157.44
2022-11-28T11:12:11.028Z,100156.56
2022-11-28T11:14:43.076Z,100163.66
2022-11-28T11:17:18.634Z,100169.59
2022-11-28T11:19:48.136Z,100161.31
2022-11-28T11:22:20.414Z,100153.94
2022-11-28T11:25:06.882Z,100153.81
2022-11-28T11:27:39.525Z,100153.69
2022-11-28T11:30:20.843Z,100162.22
2022-11-28T11:32:51.759Z,100155.72
2022-11-28T11:35:23.075Z,100157.63
2022-11-28T11:37:52.905Z,100162.63
2022-11-28T11:40:28.968Z,100150.00
2022-11-28T11:43:02.023Z,100152.03
2022-11-28T11:45:33.399Z,100144.66
2022-11-28T11:48:03.046Z,100152.09
2022-11-28T11:50:33.413Z,100155.81
2022-11-28T11:53:03.977Z,100153.19
2022-11-28T11:55:34.218Z,100148.38
2022-11-28T11:58:06.336Z,100149.84
2022-11-28T12:00:39.007Z,100151.91
2022-11-28T12:03:13.993Z,100150.56
2022-11-28T12:06:13.175Z,100147.22
2022-11-28T12:08:42.874Z,100151.47
2022-11-28T12:11:16.411Z,100143.31
2022-11-28T12:13:48.485Z,100143.13
2022-11-28T12:16:41.622Z,100142.13
2022-11-28T12:19:17.337Z,100144.22
2022-11-28T12:21:53.538Z,100134.06
2022-11-28T12:24:23.756Z,100139.69
2022-11-28T12:26:54.372Z,100140.41
2022-11-28T12:29:47.135Z,100141.81
2022-11-28T12:32:23.390Z,100144.59
2022-11-28T12:35:00.236Z,100141.56
2022-11-28T12:38:02.733Z,100139.91
2022-11-28T12:40:32.639Z,100144.44
2022-11-28T12:43:09.048Z,100140.94
2022-11-28T12:45:45.273Z,100136.88
2022-11-28T12:48:21.802Z,100132.53
2022-11-28T12:50:52.899Z,100136.78
2022-11-28T12:53:39.467Z,100138.81
2022-11-28T12:56:12.354Z,100135.16
2022-11-28T12:58:43.637Z,100127.50
2022-11-28T13:01:25.201Z,100135.75
2022-11-28T13:04:01.078Z,100133.97
2022-11-28T13:06:34.255Z,100131.06
2022-11-28T13:09:21.325Z,100133.97
2022-11-28T13:11:55.765Z,100127.16
2022-11-28T13:14:31.407Z,100124.81
2022-11-28T13:17:15.157Z,100117.38
2022-11-28T13:19:47.638Z,100117.22
2022-11-28T13:22:20.390Z,100120.03
2022-11-28T13:24:53.023Z,100115.56
2022-11-28T13:27:27.608Z,100125.00
2022-11-28T13:30:01.676Z,100114.53
2022-11-28T13:32:37.603Z,100114.41
2022-11-28T13:35:07.335Z,100119.84
2022-11-28T13:40:29.425Z,100118.63
2022-11-28T13:43:07.231Z,100115.56
2022-11-28T13:45:39.760Z,100119.53
2022-11-28T13:51:32.972Z,100118.50
2022-11-28T13:54:41.792Z,100117.63
2022-11-28T13:57:18.997Z,100116.63
2022-11-28T13:59:51.026Z,100125.31
2022-11-28T14:02:23.066Z,100116.44
2022-11-28T14:04:52.552Z,100126.78
2022-11-28T14:07:29.547Z,100109.59
2022-11-28T14:10:10.477Z,100117.53
2022-11-28T14:12:41.867Z,100114.16
2022-11-28T14:15:17.561Z,100113.84
2022-11-28T14:17:58.221Z,100113.88
2022-11-28T14:20:30.286Z,100119.31
2022-11-28T14:23:12.028Z,100126.28
2022-11-28T14:25:43.404Z,100127.00
2022-11-28T14:28:20.753Z,100133.97
2022-11-28T14:30:50.548Z,100123.81
2022-11-28T14:33:21.475Z,100126.38
2022-11-28T14:36:09.081Z,100132.53
2022-11-28T14:38:51.592Z,100128.72
2022-11-28T14:41:21.052Z,100132.66
2022-11-28T14:43:50.700Z,100126.53
2022-11-28T14:46:34.180Z,100134.69
2022-11-28T14:49:24.145Z,100133.78
2022-11-28T14:52:40.599Z,100131.53
2022-11-28T14:55:21.221Z,100139.78
2022-11-28T14:57:57.518Z,100132.63
2022-11-28T15:00:28.073Z,100137.13
2022-11-28T15:03:11.611Z,100142.31
2022-11-28T15:05:46.861Z,100139.50
2022-11-28T15:08:40.592Z,100149.28
2022-11-28T15:11:24.124Z,100140.69
2022-11-28T15:14:02.943Z,100138.59
2022-11-28T15:16:32.816Z,100145.94
2022-11-28T15:19:06.095Z,100140.22
2022-11-28T15:21:44.707Z,100146.38
2022-11-28T15:24:20.289Z,100135.69
2022-11-28T15:26:57.218Z,100135.94
2022-11-28T15:29:28.051Z,100131.75
2022-11-28T15:31:58.596Z,100142.34
2022-11-28T15:34:29.673Z,100144.72
2022-11-28T15:36:59.369Z,100142.63
2022-11-28T15:39:34.923Z,100143.63
2022-11-28T15:42:08.123Z,100141.00
2022-11-28T15:44:37.742Z,100132.09
2022-11-28T15:47:07.439Z,100141.59
2022-11-28T15:49:40.637Z,100137.09
2022-11-28T15:52:10.128Z,100139.00
2022-11-28T15:54:41.263Z,100144.38
2022-11-28T15:57:23.371Z,100142.06
2022-11-28T15:59:52.866Z,100142.84
2022-11-28T16:02:26.481Z,100148.66
2022-11-28T16:04:57.820Z,100146.72
2022-11-28T16:07:27.322Z,100152.31
2022-11-28T16:10:00.541Z,100154.66
2022-11-28T16:12:32.717Z,100154.94
2022-11-28T16:15:05.191Z,100154.53
2022-11-28T16:17:36.003Z,100160.44
2022-11-28T16:20:05.510Z,100157.84
2022-11-28T16:22:37.112Z,100159.56
2022-11-28T16:25:23.229Z,100160.53
2022-11-28T16:27:57.464Z,100160.25
2022-11-28T16:30:34.733Z,100159.31
2022-11-28T16:33:04.249Z,100154.72
2022-11-28T16:35:37.788Z,100159.41
2022-11-28T16:38:08.696Z,100162.31
2022-11-28T16:40:38.138Z,100157.66
2022-11-28T16:43:21.368Z,100160.56
2022-11-28T16:45:59.741Z,100165.81
2022-11-28T16:48:30.133Z,100163.38
2022-11-28T16:51:32.304Z,100161.75
2022-11-28T16:54:02.019Z,100163.38
2022-11-28T16:56:45.304Z,100157.94
2022-11-28T16:59:18.120Z,100171.25
2022-11-28T17:01:49.103Z,100170.91
2022-11-28T17:04:22.205Z,100163.63
2022-11-28T17:06:51.869Z,100165.28
2022-11-28T17:09:21.522Z,100162.66
2022-11-28T17:11:53.809Z,100168.91
2022-11-28T17:14:25.867Z,100172.19
2022-11-28T17:16:55.299Z,100170.34
2022-11-28T17:19:24.779Z,100171.53
2022-11-28T17:21:55.052Z,100175.81
2022-11-28T17:24:25.825Z,100174.63
2022-11-28T17:26:55.781Z,100172.91
2022-11-28T17:29:28.596Z,100171.22
2022-11-28T17:31:59.032Z,100180.28
2022-11-28T17:34:30.812Z,100180.50
2022-11-28T17:37:00.544Z,100185.84
2022-11-28T17:39:30.294Z,100182.13
2022-11-28T17:41:59.861Z,100184.94
2022-11-28T17:44:32.648Z,100184.69
2022-11-28T17:47:02.803Z,100181.13
2022-11-28T17:49:32.483Z,100186.91
2022-11-28T17:52:01.924Z,100184.56
2022-11-28T17:54:31.380Z,100187.78
2022-11-28T17:57:00.857Z,100186.63
2022-11-28T17:59:34.329Z,100185.44
2022-11-28T18:02:03.876Z,100184.63
2022-11-28T18:04:33.344Z,100188.06
2022-11-28T18:07:02.898Z,100192.97
2022-11-28T18:09:32.364Z,100188.06
2022-11-28T18:12:01.865Z,100186.69
2022-11-28T18:14:39.353Z,100177.00
2022-11-28T18:17:09.197Z,100186.13
2022-11-28T18:19:38.632Z,100188.97
2022-11-28T18:22:08.901Z,100187.41
2022-11-28T18:24:38.329Z,100183.94
2022-11-28T18:27:07.786Z,100184.59
2022-11-28T18:29:39.823Z,100179.91
2022-11-28T18:32:09.344Z,100182.88
2022-11-28T18:34:38.807Z,100182.53
2022-11-28T18:37:08.435Z,100186.13
2022-11-28T18:39:37.878Z,100189.78
2022-11-28T18:42:07.627Z,100190.44
2022-11-28T18:44:39.718Z,100180.06
2022-11-28T18:47:09.162Z,100191.22
2022-11-28T18:49:38.632Z,100188.22
2022-11-28T18:52:08.146Z,100189.22
2022-11-28T18:54:38.496Z,100194.69
2022-11-28T18:57:09.239Z,100194.88
2022-11-28T18:59:43.463Z,100191.84
2022-11-28T19:02:18.150Z,100188.59
2022-11-28T19:04:47.583Z,100191.66
2022-11-28T19:07:17.325Z,100193.50
2022-11-28T19:09:47.281Z,100198.78
2022-11-28T19:12:16.740Z,100197.94
2022-11-28T19:14:48.809Z,100200.41
2022-11-28T19:17:18.893Z,100202.63
2022-11-28T19:19:48.369Z,100202.28
2022-11-28T19:22:17.891Z,100201.28
2022-11-28T19:24:47.352Z,100203.72
2022-11-28T19:27:16.818Z,100201.94
2022-11-28T19:29:48.912Z,100203.72
2022-11-28T19:32:18.427Z,100195.06
2022-11-28T19:34:52.258Z,100192.00
2022-11-28T19:37:21.751Z,100198.72
2022-11-28T19:39:51.202Z,100198.09
2022-11-28T19:42:20.699Z,100198.09
2022-11-28T19:44:52.752Z,100199.47
2022-11-28T19:47:23.014Z,100200.91
2022-11-28T19:49:52.506Z,100201.34
2022-11-28T19:52:22.006Z,100201.53
2022-11-28T19:54:51.844Z,100199.56
2022-11-28T19:57:21.332Z,100197.34
2022-11-28T19:59:53.381Z,100202.97
2022-11-28T20:02:23.584Z,100201.19
2022-11-28T20:04:53.111Z,100200.16
2022-11-28T20:07:22.724Z,100205.06
2022-11-28T20:09:52.560Z,100206.88
2022-11-28T20:12:22.340Z,100212.31
2022-11-28T20:14:54.401Z,100209.56
2022-11-28T20:17:23.967Z,100209.50
2022-11-28T20:19:53.419Z,100220.22
2022-11-28T20:22:24.764Z,100218.56
2022-11-28T20:24:54.304Z,100216.03
2022-11-28T20:27:23.820Z,100225.03
2022-11-28T20:29:55.894Z,100228.19
2022-11-28T20:32:25.411Z,100225.47
2022-11-28T20:34:54.908Z,100229.00
2022-11-28T20:37:24.557Z,100232.91
2022-11-28T20:39:54.277Z,100229.91
2022-11-28T20:42:23.809Z,100234.97
2022-11-28T20:44:55.909Z,100229.34
2022-11-28T20:47:25.440Z,100240.94
2022-11-28T20:49:54.933Z,100235.50
2022-11-28T20:52:24.386Z,100236.78
2022-11-28T20:54:53.867Z,100238.84
2022-11-28T20:57:23.470Z,100233.78
2022-11-28T20:59:56.808Z,100232.78
2022-11-28T21:02:26.494Z,100230.94
2022-11-28T21:04:56.243Z,100230.16
2022-11-28T21:07:27.052Z,100235.59
2022-11-28T21:09:59.881Z,100232.25
2022-11-28T21:12:29.347Z,100237.53
2022-11-28T21:15:02.053Z,100236.63
2022-11-28T21:17:31.550Z,100238.28
2022-11-28T21:20:01.062Z,100237.72
2022-11-28T21:22:32.890Z,100239.53
2022-11-28T21:25:02.425Z,100245.16
2022-11-28T21:27:31.884Z,100242.41
2022-11-28T21:30:04.045Z,100239.41
2022-11-28T21:32:33.511Z,100244.31
2022-11-28T21:35:04.732Z,100249.59
2022-11-28T21:37:34.609Z,100243.13
2022-11-28T21:40:04.092Z,100255.28
2022-11-28T21:42:34.286Z,100250.81
2022-11-28T21:45:06.815Z,100258.72
2022-11-28T21:47:36.740Z,100246.38
2022-11-28T21:50:06.336Z,100240.28
2022-11-28T21:52:35.823Z,100244.75
2022-11-28T21:55:05.337Z,100243.94
2022-11-28T21:57:35.053Z,100244.59
2022-11-28T22:00:16.605Z,100251.25
2022-11-28T22:03:01.116Z,100243.84
2022-11-28T22:05:32.860Z,100251.91
2022-11-28T22:08:02.492Z,100248.47
2022-11-28T22:10:32.326Z,100251.47
2022-11-28T22:13:01.816Z,100248.19
2022-11-28T22:15:33.879Z,100252.47
2022-11-28T22:18:03.371Z,100256.34
2022-11-28T22:20:32.860Z,100255.28
2022-11-28T22:23:02.395Z,100252.84
2022-11-28T22:25:31.947Z,100254.38
2022-11-28T22:28:01.453Z,100247.31
2022-11-28T22:30:33.574Z,100252.50
2022-11-28T22:33:03.081Z,100247.06
2022-11-28T22:35:33.149Z,100252.88
2022-11-28T22:38:02.646Z,100259.22
2022-11-28T22:40:32.179Z,100256.16
2022-11-28T22:43:01.722Z,100259.31
2022-11-28T22:45:33.888Z,100255.31
2022-11-28T22:48:03.468Z,100259.84
2022-11-28T22:50:36.020Z,100260.38
2022-11-28T22:53:09.445Z,100259.47
2022-11-28T22:55:38.980Z,100264.72
2022-11-28T22:58:08.724Z,100265.84
2022-11-28T23:00:40.834Z,100261.00
2022-11-28T23:03:10.508Z,100262.00
2022-11-28T23:05:41.383Z,100266.00
2022-11-28T23:08:14.149Z,100263.00
2022-11-28T23:10:43.644Z,100269.53
2022-11-28T23:13:13.166Z,100271.81
2022-11-28T23:15:51.194Z,100264.69
2022-11-28T23:18:22.217Z,100262.28
2022-11-28T23:20:51.711Z,100261.09
2022-11-28T23:23:21.269Z,100267.97
2022-11-28T23:25:50.761Z,100269.78
2022-11-28T23:28:20.295Z,100268.78
2022-11-28T23:30:52.373Z,100269.44
2022-11-28T23:33:21.915Z,100273.06
2022-11-28T23:35:51.395Z,100262.72
2022-11-28T23:38:20.969Z,100263.72
2022-11-28T23:40:50.455Z,100268.78
2022-11-28T23:43:19.961Z,100275.88
2022-11-28T23:45:52.035Z,100272.06
2022-11-28T23:48:21.587Z,100264.16
2022-11-28T23:50:51.100Z,100270.22
2022-11-28T23:53:20.640Z,100268.25
2022-11-28T23:55:50.147Z,100269.69
2022-11-28T23:58:19.640Z,100269.88
